sensor_id;sensor_type;location;lat;lon;timestamp;pressure;altitude;pressure_sealevel;temperature;humidity
41690;BME280;27372;42.658;23.256;2023-04-27T00:01:38;93492.66;;;5.98;62.72
41690;BME280;27372;42.658;23.256;2023-04-27T00:04:03;93503.94;;;5.92;63.84
41690;BME280;27372;42.658;23.256;2023-04-27T00:06:29;93500.75;;;5.90;64.13
41690;BME280;27372;42.658;23.256;2023-04-27T00:08:54;93497.13;;;5.91;63.44
41690;BME280;27372;42.658;23.256;2023-04-27T00:11:20;93504.44;;;5.82;64.20
41690;BME280;27372;42.658;23.256;2023-04-27T00:13:46;93518.28;;;5.76;64.04
41690;BME280;27372;42.658;23.256;2023-04-27T00:16:12;93515.88;;;5.81;63.81
41690;BME280;27372;42.658;23.256;2023-04-27T00:18:37;93516.31;;;5.97;63.54
41690;BME280;27372;42.658;23.256;2023-04-27T00:21:02;93525.47;;;5.81;63.69
41690;BME280;27372;42.658;23.256;2023-04-27T00:23:28;93513.75;;;5.65;63.41
41690;BME280;27372;42.658;23.256;2023-04-27T00:25:56;93516.91;;;5.73;64.22
41690;BME280;27372;42.658;23.256;2023-04-27T00:28:22;93523.31;;;5.78;64.23
41690;BME280;27372;42.658;23.256;2023-04-27T00:30:47;93520.69;;;5.78;63.65
41690;BME280;27372;42.658;23.256;2023-04-27T00:33:13;93509.69;;;5.75;63.44
41690;BME280;27372;42.658;23.256;2023-04-27T00:35:38;93513.91;;;5.77;64.06
41690;BME280;27372;42.658;23.256;2023-04-27T00:38:04;93523.47;;;5.83;63.92
41690;BME280;27372;42.658;23.256;2023-04-27T00:40:29;93523.41;;;5.64;64.61
41690;BME280;27372;42.658;23.256;2023-04-27T00:42:55;93510.63;;;5.56;64.50
41690;BME280;27372;42.658;23.256;2023-04-27T00:45:20;93521.31;;;5.48;64.55
41690;BME280;27372;42.658;23.256;2023-04-27T00:47:46;93529.56;;;5.38;64.92
41690;BME280;27372;42.658;23.256;2023-04-27T00:50:11;93523.41;;;5.32;65.65
41690;BME280;27372;42.658;23.256;2023-04-27T00:52:38;93516.59;;;5.31;65.37
41690;BME280;27372;42.658;23.256;2023-04-27T00:55:04;93517.44;;;5.25;64.93
41690;BME280;27372;42.658;23.256;2023-04-27T00:57:30;93532.47;;;5.23;65.28
41690;BME280;27372;42.658;23.256;2023-04-27T00:59:56;93522.94;;;5.03;65.54
41690;BME280;27372;42.658;23.256;2023-04-27T01:02:24;93529.13;;;5.09;65.90
41690;BME280;27372;42.658;23.256;2023-04-27T01:04:49;93523.56;;;4.98;66.25
41690;BME280;27372;42.658;23.256;2023-04-27T01:07:15;93525.59;;;4.96;65.74
41690;BME280;27372;42.658;23.256;2023-04-27T01:09:41;93521.59;;;4.94;66.26
41690;BME280;27372;42.658;23.256;2023-04-27T01:12:06;93542.81;;;4.97;65.96
41690;BME280;27372;42.658;23.256;2023-04-27T01:14:32;93532.41;;;4.91;66.07
41690;BME280;27372;42.658;23.256;2023-04-27T01:16:57;93531.97;;;5.01;65.65
41690;BME280;27372;42.658;23.256;2023-04-27T01:19:23;93523.84;;;4.84;65.58
41690;BME280;27372;42.658;23.256;2023-04-27T01:21:48;93527.44;;;4.89;66.72
41690;BME280;27372;42.658;23.256;2023-04-27T01:24:13;93532.25;;;4.86;66.17
41690;BME280;27372;42.658;23.256;2023-04-27T01:26:39;93539.47;;;4.77;65.82
41690;BME280;27372;42.658;23.256;2023-04-27T01:29:04;93537.63;;;4.84;65.94
41690;BME280;27372;42.658;23.256;2023-04-27T01:31:30;93551.00;;;4.94;65.39
41690;BME280;27372;42.658;23.256;2023-04-27T01:33:56;93539.47;;;4.84;65.30
41690;BME280;27372;42.658;23.256;2023-04-27T01:36:21;93544.06;;;4.81;65.83
41690;BME280;27372;42.658;23.256;2023-04-27T01:38:46;93536.25;;;4.81;65.73
41690;BME280;27372;42.658;23.256;2023-04-27T01:41:12;93554.22;;;4.96;65.38
41690;BME280;27372;42.658;23.256;2023-04-27T01:43:37;93554.44;;;4.88;65.01
41690;BME280;27372;42.658;23.256;2023-04-27T01:46:12;93540.59;;;4.94;64.86
41690;BME280;27372;42.658;23.256;2023-04-27T01:48:39;93539.44;;;4.90;65.09
41690;BME280;27372;42.658;23.256;2023-04-27T01:51:05;93546.03;;;4.86;65.73
41690;BME280;27372;42.658;23.256;2023-04-27T01:53:30;93557.06;;;4.88;64.75
41690;BME280;27372;42.658;23.256;2023-04-27T01:55:56;93546.66;;;4.88;64.76
41690;BME280;27372;42.658;23.256;2023-04-27T01:58:23;93539.59;;;4.95;64.47
41690;BME280;27372;42.658;23.256;2023-04-27T02:00:49;93539.44;;;4.90;64.12
41690;BME280;27372;42.658;23.256;2023-04-27T02:03:14;93539.25;;;4.85;63.60
41690;BME280;27372;42.658;23.256;2023-04-27T02:05:39;93552.22;;;4.92;64.08
41690;BME280;27372;42.658;23.256;2023-04-27T02:08:06;93549.66;;;4.85;64.10
41690;BME280;27372;42.658;23.256;2023-04-27T02:10:33;93547.22;;;4.97;63.72
41690;BME280;27372;42.658;23.256;2023-04-27T02:12:58;93535.88;;;4.78;64.52
41690;BME280;27372;42.658;23.256;2023-04-27T02:15:24;93544.03;;;4.88;64.64
41690;BME280;27372;42.658;23.256;2023-04-27T02:17:49;93543.25;;;4.88;64.03
41690;BME280;27372;42.658;23.256;2023-04-27T02:20:15;93544.25;;;4.93;63.79
41690;BME280;27372;42.658;23.256;2023-04-27T02:22:41;93561.00;;;5.04;63.10
41690;BME280;27372;42.658;23.256;2023-04-27T02:25:11;93559.97;;;5.12;63.09
41690;BME280;27372;42.658;23.256;2023-04-27T02:27:37;93551.00;;;5.01;63.77
41690;BME280;27372;42.658;23.256;2023-04-27T02:30:07;93557.78;;;5.02;62.84
41690;BME280;27372;42.658;23.256;2023-04-27T02:32:33;93542.41;;;4.94;63.31
41690;BME280;27372;42.658;23.256;2023-04-27T02:34:59;93548.25;;;4.89;63.38
41690;BME280;27372;42.658;23.256;2023-04-27T02:37:24;93551.47;;;4.85;63.04
41690;BME280;27372;42.658;23.256;2023-04-27T02:39:56;93554.84;;;4.92;63.01
41690;BME280;27372;42.658;23.256;2023-04-27T02:42:22;93548.09;;;4.77;63.43
41690;BME280;27372;42.658;23.256;2023-04-27T02:44:47;93565.66;;;4.89;63.32
41690;BME280;27372;42.658;23.256;2023-04-27T02:47:16;93560.88;;;4.86;63.21
41690;BME280;27372;42.658;23.256;2023-04-27T02:49:41;93560.28;;;4.77;63.45
41690;BME280;27372;42.658;23.256;2023-04-27T02:52:07;93566.69;;;4.81;62.95
41690;BME280;27372;42.658;23.256;2023-04-27T02:54:33;93566.06;;;4.86;63.50
41690;BME280;27372;42.658;23.256;2023-04-27T02:56:59;93550.25;;;4.80;63.62
41690;BME280;27372;42.658;23.256;2023-04-27T02:59:24;93563.09;;;4.82;62.38
41690;BME280;27372;42.658;23.256;2023-04-27T03:01:50;93557.31;;;4.73;63.13
41690;BME280;27372;42.658;23.256;2023-04-27T03:04:15;93564.50;;;4.78;63.33
41690;BME280;27372;42.658;23.256;2023-04-27T03:06:42;93574.50;;;4.81;63.99
41690;BME280;27372;42.658;23.256;2023-04-27T03:09:08;93571.69;;;4.82;64.59
41690;BME280;27372;42.658;23.256;2023-04-27T03:11:37;93574.31;;;4.76;63.96
41690;BME280;27372;42.658;23.256;2023-04-27T03:14:04;93581.31;;;4.82;64.16
41690;BME280;27372;42.658;23.256;2023-04-27T03:16:33;93592.34;;;4.77;63.93
41690;BME280;27372;42.658;23.256;2023-04-27T03:18:58;93579.09;;;4.79;63.18
41690;BME280;27372;42.658;23.256;2023-04-27T03:21:24;93582.31;;;4.81;62.57
41690;BME280;27372;42.658;23.256;2023-04-27T03:23:50;93572.69;;;4.75;62.97
41690;BME280;27372;42.658;23.256;2023-04-27T03:26:16;93576.31;;;4.74;63.47
41690;BME280;27372;42.658;23.256;2023-04-27T03:28:41;93580.50;;;4.75;62.55
41690;BME280;27372;42.658;23.256;2023-04-27T03:31:09;93584.53;;;4.71;62.97
41690;BME280;27372;42.658;23.256;2023-04-27T03:33:35;93591.94;;;4.67;63.37
41690;BME280;27372;42.658;23.256;2023-04-27T03:36:02;93590.34;;;4.66;62.81
41690;BME280;27372;42.658;23.256;2023-04-27T03:38:28;93581.34;;;4.62;62.80
41690;BME280;27372;42.658;23.256;2023-04-27T03:40:54;93583.94;;;4.62;62.86
41690;BME280;27372;42.658;23.256;2023-04-27T03:43:20;93587.97;;;4.58;62.52
41690;BME280;27372;42.658;23.256;2023-04-27T03:45:46;93588.75;;;4.58;63.49
41690;BME280;27372;42.658;23.256;2023-04-27T03:48:15;93595.19;;;4.56;63.28
41690;BME280;27372;42.658;23.256;2023-04-27T03:50:41;93580.56;;;4.55;62.26
41690;BME280;27372;42.658;23.256;2023-04-27T03:53:07;93603.59;;;4.58;61.95
41690;BME280;27372;42.658;23.256;2023-04-27T03:55:33;93590.78;;;4.49;62.89
41690;BME280;27372;42.658;23.256;2023-04-27T03:57:58;93612.16;;;4.58;62.65
41690;BME280;27372;42.658;23.256;2023-04-27T04:00:23;93598.16;;;4.59;62.35
41690;BME280;27372;42.658;23.256;2023-04-27T04:02:49;93606.53;;;4.68;62.60
41690;BME280;27372;42.658;23.256;2023-04-27T04:05:16;93609.97;;;4.62;62.28
41690;BME280;27372;42.658;23.256;2023-04-27T04:07:42;93619.16;;;4.71;62.35
41690;BME280;27372;42.658;23.256;2023-04-27T04:10:08;93621.38;;;4.54;62.12
41690;BME280;27372;42.658;23.256;2023-04-27T04:12:36;93608.59;;;7.27;100.00
41690;BME280;27372;42.658;23.256;2023-04-27T04:15:03;93613.72;;;6.60;74.20
41690;BME280;27372;42.658;23.256;2023-04-27T04:17:32;93615.06;;;7.25;64.19
41690;BME280;27372;42.658;23.256;2023-04-27T04:19:58;93642.44;;;6.34;61.98
41690;BME280;27372;42.658;23.256;2023-04-27T04:22:24;93642.41;;;6.60;61.24
41690;BME280;27372;42.658;23.256;2023-04-27T04:24:50;93621.19;;;7.49;60.63
41690;BME280;27372;42.658;23.256;2023-04-27T04:27:15;93632.13;;;8.19;57.45
41690;BME280;27372;42.658;23.256;2023-04-27T04:29:41;93624.00;;;8.63;59.79
41690;BME280;27372;42.658;23.256;2023-04-27T04:32:06;93637.69;;;8.22;53.96
41690;BME280;27372;42.658;23.256;2023-04-27T04:34:33;93641.31;;;7.30;55.63
41690;BME280;27372;42.658;23.256;2023-04-27T04:36:59;93641.75;;;8.49;53.74
41690;BME280;27372;42.658;23.256;2023-04-27T04:39:32;93629.47;;;7.46;58.48
41690;BME280;27372;42.658;23.256;2023-04-27T04:41:57;93648.50;;;8.26;57.70
41690;BME280;27372;42.658;23.256;2023-04-27T04:44:23;93651.53;;;7.81;57.00
41690;BME280;27372;42.658;23.256;2023-04-27T04:46:48;93645.09;;;7.83;55.45
41690;BME280;27372;42.658;23.256;2023-04-27T04:49:15;93647.84;;;7.88;53.40
41690;BME280;27372;42.658;23.256;2023-04-27T04:51:41;93654.31;;;8.28;51.20
41690;BME280;27372;42.658;23.256;2023-04-27T04:54:09;93660.66;;;9.63;51.38
41690;BME280;27372;42.658;23.256;2023-04-27T04:56:34;93652.53;;;9.76;49.14
41690;BME280;27372;42.658;23.256;2023-04-27T04:59:00;93662.75;;;7.69;53.41
41690;BME280;27372;42.658;23.256;2023-04-27T05:01:26;93659.31;;;7.01;54.85
41690;BME280;27372;42.658;23.256;2023-04-27T05:03:51;93666.25;;;9.02;53.33
41690;BME280;27372;42.658;23.256;2023-04-27T05:06:17;93672.28;;;8.79;48.51
41690;BME280;27372;42.658;23.256;2023-04-27T05:08:43;93672.06;;;7.09;54.00
41690;BME280;27372;42.658;23.256;2023-04-27T05:11:08;93677.72;;;6.37;55.77
41690;BME280;27372;42.658;23.256;2023-04-27T05:13:34;93674.34;;;6.04;56.08
41690;BME280;27372;42.658;23.256;2023-04-27T05:16:05;93679.06;;;5.82;58.33
41690;BME280;27372;42.658;23.256;2023-04-27T05:18:32;93689.00;;;5.92;58.04
41690;BME280;27372;42.658;23.256;2023-04-27T05:20:58;93685.50;;;5.73;58.94
41690;BME280;27372;42.658;23.256;2023-04-27T05:23:24;93688.16;;;5.59;59.89
41690;BME280;27372;42.658;23.256;2023-04-27T05:25:49;93691.91;;;5.70;60.50
41690;BME280;27372;42.658;23.256;2023-04-27T05:28:14;93688.31;;;5.71;59.88
41690;BME280;27372;42.658;23.256;2023-04-27T05:30:40;93682.66;;;5.81;60.34
41690;BME280;27372;42.658;23.256;2023-04-27T05:33:05;93695.03;;;5.99;59.26
41690;BME280;27372;42.658;23.256;2023-04-27T05:35:31;93688.31;;;5.71;60.12
41690;BME280;27372;42.658;23.256;2023-04-27T05:37:57;93690.34;;;5.69;61.15
41690;BME280;27372;42.658;23.256;2023-04-27T05:40:23;93699.22;;;5.55;61.11
41690;BME280;27372;42.658;23.256;2023-04-27T05:42:49;93702.28;;;5.38;61.01
41690;BME280;27372;42.658;23.256;2023-04-27T05:45:15;93704.47;;;5.41;61.51
41690;BME280;27372;42.658;23.256;2023-04-27T05:47:41;93705.69;;;5.39;61.91
41690;BME280;27372;42.658;23.256;2023-04-27T05:50:07;93708.47;;;5.44;60.70
41690;BME280;27372;42.658;23.256;2023-04-27T05:52:32;93700.31;;;5.34;62.90
41690;BME280;27372;42.658;23.256;2023-04-27T05:54:58;93706.66;;;5.44;62.50
41690;BME280;27372;42.658;23.256;2023-04-27T05:57:24;93705.03;;;5.50;62.67
41690;BME280;27372;42.658;23.256;2023-04-27T05:59:50;93711.84;;;5.97;62.63
41690;BME280;27372;42.658;23.256;2023-04-27T06:02:19;93705.13;;;5.82;61.36
41690;BME280;27372;42.658;23.256;2023-04-27T06:04:45;93705.09;;;5.89;63.02
41690;BME280;27372;42.658;23.256;2023-04-27T06:07:14;93711.94;;;6.22;63.11
41690;BME280;27372;42.658;23.256;2023-04-27T06:09:40;93708.72;;;6.52;63.28
41690;BME280;27372;42.658;23.256;2023-04-27T06:12:07;93705.16;;;6.72;62.13
41690;BME280;27372;42.658;23.256;2023-04-27T06:14:35;93703.13;;;6.74;61.11
41690;BME280;27372;42.658;23.256;2023-04-27T06:17:02;93701.00;;;6.64;60.91
41690;BME280;27372;42.658;23.256;2023-04-27T06:19:28;93720.25;;;6.70;60.94
41690;BME280;27372;42.658;23.256;2023-04-27T06:21:54;93714.06;;;6.64;59.99
41690;BME280;27372;42.658;23.256;2023-04-27T06:24:20;93706.19;;;6.71;60.12
41690;BME280;27372;42.658;23.256;2023-04-27T06:26:46;93713.75;;;6.79;59.79
41690;BME280;27372;42.658;23.256;2023-04-27T06:29:11;93698.16;;;6.91;58.13
41690;BME280;27372;42.658;23.256;2023-04-27T06:31:36;93703.97;;;6.93;58.96
41690;BME280;27372;42.658;23.256;2023-04-27T06:34:02;93700.16;;;7.14;57.29
41690;BME280;27372;42.658;23.256;2023-04-27T06:36:28;93698.28;;;7.40;55.92
41690;BME280;27372;42.658;23.256;2023-04-27T06:38:54;93695.19;;;6.87;57.77
41690;BME280;27372;42.658;23.256;2023-04-27T06:41:21;93706.44;;;6.62;58.49
41690;BME280;27372;42.658;23.256;2023-04-27T06:43:47;93698.09;;;6.53;57.99
41690;BME280;27372;42.658;23.256;2023-04-27T06:46:13;93679.53;;;6.36;58.52
41690;BME280;27372;42.658;23.256;2023-04-27T06:48:39;93677.34;;;6.33;58.42
41690;BME280;27372;42.658;23.256;2023-04-27T06:51:05;93682.25;;;6.74;57.80
41690;BME280;27372;42.658;23.256;2023-04-27T06:53:30;93693.56;;;7.11;57.00
41690;BME280;27372;42.658;23.256;2023-04-27T06:55:56;93691.66;;;7.19;56.41
41690;BME280;27372;42.658;23.256;2023-04-27T06:58:22;93679.53;;;7.06;55.73
41690;BME280;27372;42.658;23.256;2023-04-27T07:00:47;93690.53;;;7.14;55.98
41690;BME280;27372;42.658;23.256;2023-04-27T07:03:13;93683.84;;;7.37;55.36
41690;BME280;27372;42.658;23.256;2023-04-27T07:05:39;93682.50;;;7.84;54.77
41690;BME280;27372;42.658;23.256;2023-04-27T07:08:04;93679.38;;;8.05;53.78
41690;BME280;27372;42.658;23.256;2023-04-27T07:10:30;93686.56;;;8.10;53.58
41690;BME280;27372;42.658;23.256;2023-04-27T07:12:55;93684.78;;;8.22;52.42
41690;BME280;27372;42.658;23.256;2023-04-27T07:15:22;93682.13;;;7.80;53.64
41690;BME280;27372;42.658;23.256;2023-04-27T07:17:47;93683.91;;;7.98;54.05
41690;BME280;27372;42.658;23.256;2023-04-27T07:20:12;93696.19;;;7.67;54.44
41690;BME280;27372;42.658;23.256;2023-04-27T07:22:39;93682.94;;;8.11;53.99
41690;BME280;27372;42.658;23.256;2023-04-27T07:25:05;93672.16;;;8.31;52.86
41690;BME280;27372;42.658;23.256;2023-04-27T07:27:33;93680.84;;;8.44;52.17
41690;BME280;27372;42.658;23.256;2023-04-27T07:29:59;93687.28;;;8.48;50.32
41690;BME280;27372;42.658;23.256;2023-04-27T07:32:25;93674.53;;;8.63;50.59
41690;BME280;27372;42.658;23.256;2023-04-27T07:34:50;93682.97;;;8.35;51.09
41690;BME280;27372;42.658;23.256;2023-04-27T07:37:16;93670.75;;;8.47;50.90
41690;BME280;27372;42.658;23.256;2023-04-27T07:39:42;93682.53;;;8.68;51.07
41690;BME280;27372;42.658;23.256;2023-04-27T07:42:07;93679.78;;;8.75;50.52
41690;BME280;27372;42.658;23.256;2023-04-27T07:44:33;93681.94;;;8.78;50.02
41690;BME280;27372;42.658;23.256;2023-04-27T07:47:05;93673.97;;;8.61;49.96
41690;BME280;27372;42.658;23.256;2023-04-27T07:49:30;93673.19;;;8.96;48.80
41690;BME280;27372;42.658;23.256;2023-04-27T07:51:56;93675.22;;;9.30;48.43
41690;BME280;27372;42.658;23.256;2023-04-27T07:54:22;93667.03;;;9.67;47.90
41690;BME280;27372;42.658;23.256;2023-04-27T07:56:47;93674.53;;;8.99;48.13
41690;BME280;27372;42.658;23.256;2023-04-27T07:59:12;93676.03;;;9.30;48.36
41690;BME280;27372;42.658;23.256;2023-04-27T08:01:39;93679.91;;;9.16;46.83
41690;BME280;27372;42.658;23.256;2023-04-27T08:04:04;93681.22;;;9.42;47.21
41690;BME280;27372;42.658;23.256;2023-04-27T08:06:30;93677.66;;;9.60;46.50
41690;BME280;27372;42.658;23.256;2023-04-27T08:08:55;93696.25;;;9.88;46.71
41690;BME280;27372;42.658;23.256;2023-04-27T08:11:25;93688.69;;;9.74;46.45
41690;BME280;27372;42.658;23.256;2023-04-27T08:13:50;93696.03;;;9.48;46.09
41690;BME280;27372;42.658;23.256;2023-04-27T08:16:16;93686.97;;;9.80;47.33
41690;BME280;27372;42.658;23.256;2023-04-27T08:18:43;93687.00;;;9.97;45.27
41690;BME280;27372;42.658;23.256;2023-04-27T08:21:08;93694.44;;;10.46;45.88
41690;BME280;27372;42.658;23.256;2023-04-27T08:23:33;93696.31;;;10.63;45.11
41690;BME280;27372;42.658;23.256;2023-04-27T08:26:02;93680.06;;;10.83;44.51
41690;BME280;27372;42.658;23.256;2023-04-27T08:28:27;93674.41;;;10.74;45.05
41690;BME280;27372;42.658;23.256;2023-04-27T08:30:54;93676.31;;;10.96;43.17
41690;BME280;27372;42.658;23.256;2023-04-27T08:33:19;93679.41;;;11.49;41.84
41690;BME280;27372;42.658;23.256;2023-04-27T08:35:45;93682.34;;;11.75;42.44
41690;BME280;27372;42.658;23.256;2023-04-27T08:38:10;93675.94;;;12.70;41.05
41690;BME280;27372;42.658;23.256;2023-04-27T08:40:41;93675.22;;;12.52;40.65
41690;BME280;27372;42.658;23.256;2023-04-27T08:43:07;93691.22;;;12.73;40.21
41690;BME280;27372;42.658;23.256;2023-04-27T08:45:32;93694.78;;;12.56;40.03
41690;BME280;27372;42.658;23.256;2023-04-27T08:47:57;93664.88;;;12.40;40.74
41690;BME280;27372;42.658;23.256;2023-04-27T08:50:23;93670.44;;;12.44;40.44
41690;BME280;27372;42.658;23.256;2023-04-27T08:52:49;93679.28;;;12.33;40.48
41690;BME280;27372;42.658;23.256;2023-04-27T08:55:16;93672.66;;;12.03;39.95
41690;BME280;27372;42.658;23.256;2023-04-27T08:57:41;93678.28;;;11.45;40.30
41690;BME280;27372;42.658;23.256;2023-04-27T09:00:08;93690.78;;;11.15;40.33
41690;BME280;27372;42.658;23.256;2023-04-27T09:02:44;93681.63;;;10.50;43.10
41690;BME280;27372;42.658;23.256;2023-04-27T09:05:21;93671.78;;;10.11;44.05
41690;BME280;27372;42.658;23.256;2023-04-27T09:10:26;93682.66;;;10.49;42.77
41690;BME280;27372;42.658;23.256;2023-04-27T09:12:59;93682.03;;;10.41;43.09
41690;BME280;27372;42.658;23.256;2023-04-27T09:15:26;93669.94;;;11.09;43.09
41690;BME280;27372;42.658;23.256;2023-04-27T09:17:54;93679.03;;;10.84;43.73
41690;BME280;27372;42.658;23.256;2023-04-27T09:20:20;93670.66;;;10.53;42.54
41690;BME280;27372;42.658;23.256;2023-04-27T09:22:48;93670.63;;;10.36;43.40
41690;BME280;27372;42.658;23.256;2023-04-27T09:25:28;93667.88;;;10.14;43.65
41690;BME280;27372;42.658;23.256;2023-04-27T09:27:54;93663.09;;;10.10;42.81
41690;BME280;27372;42.658;23.256;2023-04-27T09:30:20;93677.84;;;10.92;42.53
41690;BME280;27372;42.658;23.256;2023-04-27T09:32:56;93663.41;;;11.11;42.86
41690;BME280;27372;42.658;23.256;2023-04-27T09:35:29;93666.97;;;11.05;43.22
41690;BME280;27372;42.658;23.256;2023-04-27T09:38:00;93657.66;;;9.71;45.08
41690;BME280;27372;42.658;23.256;2023-04-27T09:40:26;93664.91;;;9.93;44.97
41690;BME280;27372;42.658;23.256;2023-04-27T09:42:54;93660.44;;;10.22;45.43
41690;BME280;27372;42.658;23.256;2023-04-27T09:45:22;93644.41;;;10.53;43.55
41690;BME280;27372;42.658;23.256;2023-04-27T09:47:48;93653.78;;;10.83;42.86
41690;BME280;27372;42.658;23.256;2023-04-27T09:50:14;93652.59;;;12.51;40.22
41690;BME280;27372;42.658;23.256;2023-04-27T09:52:40;93636.38;;;13.50;37.90
41690;BME280;27372;42.658;23.256;2023-04-27T09:55:10;93644.03;;;14.67;36.02
41690;BME280;27372;42.658;23.256;2023-04-27T09:57:48;93631.84;;;15.89;33.08
41690;BME280;27372;42.658;23.256;2023-04-27T10:00:25;93640.22;;;15.46;33.28
41690;BME280;27372;42.658;23.256;2023-04-27T10:07:52;93631.06;;;15.88;33.42
41690;BME280;27372;42.658;23.256;2023-04-27T10:10:18;93650.06;;;14.47;33.47
41690;BME280;27372;42.658;23.256;2023-04-27T10:12:55;93644.16;;;13.93;33.05
41690;BME280;27372;42.658;23.256;2023-04-27T10:15:25;93641.19;;;12.78;33.60
41690;BME280;27372;42.658;23.256;2023-04-27T10:17:51;93626.16;;;13.16;32.81
41690;BME280;27372;42.658;23.256;2023-04-27T10:20:32;93625.69;;;13.93;33.23
41690;BME280;27372;42.658;23.256;2023-04-27T10:22:58;93649.94;;;12.84;33.67
41690;BME280;27372;42.658;23.256;2023-04-27T10:25:29;93634.91;;;13.86;34.81
41690;BME280;27372;42.658;23.256;2023-04-27T10:28:02;93634.50;;;13.03;35.16
41690;BME280;27372;42.658;23.256;2023-04-27T10:30:32;93637.50;;;13.22;35.04
41690;BME280;27372;42.658;23.256;2023-04-27T10:33:03;93638.09;;;12.21;36.27
41690;BME280;27372;42.658;23.256;2023-04-27T10:35:35;93637.63;;;12.95;36.47
41690;BME280;27372;42.658;23.256;2023-04-27T10:38:14;93638.06;;;13.24;36.32
41690;BME280;27372;42.658;23.256;2023-04-27T10:40:43;93628.06;;;13.31;35.49
41690;BME280;27372;42.658;23.256;2023-04-27T10:43:12;93632.88;;;15.12;32.52
41690;BME280;27372;42.658;23.256;2023-04-27T10:45:39;93625.47;;;15.24;32.42
41690;BME280;27372;42.658;23.256;2023-04-27T10:48:05;93636.03;;;16.00;32.91
41690;BME280;27372;42.658;23.256;2023-04-27T10:50:30;93640.66;;;17.28;30.73
41690;BME280;27372;42.658;23.256;2023-04-27T10:53:04;93629.75;;;15.80;30.10
41690;BME280;27372;42.658;23.256;2023-04-27T10:55:30;93630.56;;;15.76;31.63
41690;BME280;27372;42.658;23.256;2023-04-27T10:57:56;93645.81;;;15.24;30.36
41690;BME280;27372;42.658;23.256;2023-04-27T11:02:53;93636.72;;;16.61;30.33
41690;BME280;27372;42.658;23.256;2023-04-27T11:05:25;93634.25;;;18.02;28.92
41690;BME280;27372;42.658;23.256;2023-04-27T11:08:07;93631.69;;;18.87;27.41
41690;BME280;27372;42.658;23.256;2023-04-27T11:10:34;93618.00;;;15.42;30.36
41690;BME280;27372;42.658;23.256;2023-04-27T11:13:10;93623.41;;;15.87;30.64
41690;BME280;27372;42.658;23.256;2023-04-27T11:18:12;93622.84;;;15.14;31.10
41690;BME280;27372;42.658;23.256;2023-04-27T11:20:37;93634.94;;;14.01;32.46
41690;BME280;27372;42.658;23.256;2023-04-27T11:23:03;93622.56;;;14.12;32.64
41690;BME280;27372;42.658;23.256;2023-04-27T11:25:37;93634.72;;;14.08;31.94
41690;BME280;27372;42.658;23.256;2023-04-27T11:28:03;93635.56;;;14.55;31.74
41690;BME280;27372;42.658;23.256;2023-04-27T11:30:29;93624.47;;;14.73;33.54
41690;BME280;27372;42.658;23.256;2023-04-27T11:32:55;93627.97;;;12.73;34.96
41690;BME280;27372;42.658;23.256;2023-04-27T11:35:31;93634.34;;;13.78;34.90
41690;BME280;27372;42.658;23.256;2023-04-27T11:38:00;93618.81;;;15.21;33.60
41690;BME280;27372;42.658;23.256;2023-04-27T11:40:26;93631.25;;;15.26;31.38
41690;BME280;27372;42.658;23.256;2023-04-27T11:42:59;93634.84;;;15.61;32.46
41690;BME280;27372;42.658;23.256;2023-04-27T11:45:28;93632.63;;;16.74;30.47
41690;BME280;27372;42.658;23.256;2023-04-27T11:47:57;93621.69;;;17.64;29.56
41690;BME280;27372;42.658;23.256;2023-04-27T11:50:24;93624.13;;;16.77;29.23
41690;BME280;27372;42.658;23.256;2023-04-27T11:52:52;93640.19;;;16.56;29.98
41690;BME280;27372;42.658;23.256;2023-04-27T11:55:21;93632.81;;;17.17;29.82
41690;BME280;27372;42.658;23.256;2023-04-27T11:57:47;93635.50;;;17.85;28.88
41690;BME280;27372;42.658;23.256;2023-04-27T12:00:12;93654.00;;;18.53;28.69
41690;BME280;27372;42.658;23.256;2023-04-27T12:02:42;93639.94;;;18.14;27.61
41690;BME280;27372;42.658;23.256;2023-04-27T12:05:08;93643.38;;;18.53;27.75
41690;BME280;27372;42.658;23.256;2023-04-27T12:07:34;93646.16;;;16.38;30.20
41690;BME280;27372;42.658;23.256;2023-04-27T12:09:59;93640.75;;;16.08;31.68
41690;BME280;27372;42.658;23.256;2023-04-27T12:12:25;93638.59;;;15.50;31.72
41690;BME280;27372;42.658;23.256;2023-04-27T12:14:53;93641.97;;;15.71;30.98
41690;BME280;27372;42.658;23.256;2023-04-27T12:17:19;93640.50;;;16.84;30.13
41690;BME280;27372;42.658;23.256;2023-04-27T12:19:44;93641.06;;;15.20;31.86
41690;BME280;27372;42.658;23.256;2023-04-27T12:22:10;93649.28;;;14.41;34.05
41690;BME280;27372;42.658;23.256;2023-04-27T12:24:35;93652.91;;;13.99;33.59
41690;BME280;27372;42.658;23.256;2023-04-27T12:27:01;93654.13;;;13.71;34.28
41690;BME280;27372;42.658;23.256;2023-04-27T12:29:28;93646.84;;;12.97;35.02
41690;BME280;27372;42.658;23.256;2023-04-27T12:31:53;93655.00;;;13.92;34.76
41690;BME280;27372;42.658;23.256;2023-04-27T12:34:19;93647.50;;;13.68;34.98
41690;BME280;27372;42.658;23.256;2023-04-27T12:36:44;93662.00;;;13.17;35.28
41690;BME280;27372;42.658;23.256;2023-04-27T12:39:18;93653.94;;;12.54;36.21
41690;BME280;27372;42.658;23.256;2023-04-27T12:41:45;93654.53;;;13.04;35.84
41690;BME280;27372;42.658;23.256;2023-04-27T12:44:11;93650.84;;;13.43;35.08
41690;BME280;27372;42.658;23.256;2023-04-27T12:46:41;93651.28;;;13.88;34.79
41690;BME280;27372;42.658;23.256;2023-04-27T12:49:07;93649.53;;;13.45;34.88
41690;BME280;27372;42.658;23.256;2023-04-27T12:51:34;93654.66;;;13.68;34.89
41690;BME280;27372;42.658;23.256;2023-04-27T12:54:02;93646.66;;;13.47;34.48
41690;BME280;27372;42.658;23.256;2023-04-27T12:56:28;93649.00;;;13.00;35.75
41690;BME280;27372;42.658;23.256;2023-04-27T12:58:54;93655.59;;;12.05;36.66
41690;BME280;27372;42.658;23.256;2023-04-27T13:01:20;93654.25;;;11.36;37.54
41690;BME280;27372;42.658;23.256;2023-04-27T13:03:49;93666.59;;;11.58;38.18
41690;BME280;27372;42.658;23.256;2023-04-27T13:06:16;93653.63;;;11.95;38.00
41690;BME280;27372;42.658;23.256;2023-04-27T13:08:41;93663.72;;;12.58;36.95